Terminal Aerodrome Forecast
Issued by NWS Buffalo, NY

Home | Current Version | Previous Version | Text Only | Print | Product List | Glossary On
Versions: 1 2 3 4 5 6 7 8 9 10 11 12 13 14 15 16 17 18 19 20 21 22 23 24 25 26 27 28 29
784
FTUS41 KBUF 091146
TAFROC
TAF
KROC 091146Z 0912/1012 18006KT P6SM VCSH BKN040
      TEMPO 0912/0915 BKN025
     FM091500 23006KT P6SM SCT025 BKN040
     FM091800 26008KT P6SM VCSH SCT025 BKN040
     FM100200 24008KT P6SM VCSH BKN025=

USA.gov is the U.S. government's official web portal to all federal, state and local government web resources and services.